Huvudsida
METAR-TAF:

METAR-TAF

Flygplatser :

Røst, Norge

Røsts flygplats

latitud: 67-31N, longitud: 012-06E, höjd: 4 m

Aktuellt väderrapport

Denna rapport gjordes för 11 timmar och 14 minuter sedan, klockan 16:20 UTC
Vind 7 kt från ost/sydost
Temperatur -2°C
Fuktighet 59%
Tryck 995 hPa
Sikt 10 km eller mer
Få moln på en höjd av 2700 ft
Spridda moln på en höjd av 3700 ft

METAR: ENRS 181620Z 12007KT 9999 FEW027 SCT037 M02/M09 Q0995

Tid: 04:34 (03:34 UTC)


TAF: saknas

Aktuella väderrapporter och prognoser från 4000 flygplatser (METAR- och TAF-rapporter).

De tillgängliga stationerna syns som gula och röda prickar på kartan.

För musen över prickarna för att se namnen på stationerna.

Klicka sedan för att få väderrapporter och prognoser.

För att ändra kartan: Klicka på de gröna knapparna med ett svart kors på för att zooma in; den gröna knappen med ett streck på för att zooma ut; eller på de gröna pilarna för angränsande kartor.


METAR-TAF: